sensor_id;sensor_type;location;lat;lon;timestamp;pressure;altitude;pressure_sealevel;temperature;humidity
7441;BME280;29616;51.950;8.572;2023-07-09T00:02:03;100302.75;;;20.60;100.00
7441;BME280;29616;51.950;8.572;2023-07-09T00:04:34;100299.09;;;20.59;100.00
7441;BME280;29616;51.950;8.572;2023-07-09T00:07:03;100301.25;;;20.57;100.00
7441;BME280;29616;51.950;8.572;2023-07-09T00:09:33;100286.09;;;20.46;100.00
7441;BME280;29616;51.950;8.572;2023-07-09T00:12:03;100298.91;;;20.54;100.00
7441;BME280;29616;51.950;8.572;2023-07-09T00:14:31;100284.34;;;20.52;100.00
7441;BME280;29616;51.950;8.572;2023-07-09T00:16:59;100300.81;;;20.67;100.00
7441;BME280;29616;51.950;8.572;2023-07-09T00:19:27;100290.56;;;20.61;100.00
7441;BME280;29616;51.950;8.572;2023-07-09T00:21:57;100265.78;;;20.46;100.00
7441;BME280;29616;51.950;8.572;2023-07-09T00:24:25;100288.00;;;20.59;100.00
7441;BME280;29616;51.950;8.572;2023-07-09T00:26:55;100281.59;;;20.45;100.00
7441;BME280;29616;51.950;8.572;2023-07-09T00:29:24;100289.69;;;20.47;100.00
7441;BME280;29616;51.950;8.572;2023-07-09T00:31:52;100283.31;;;20.46;100.00
7441;BME280;29616;51.950;8.572;2023-07-09T00:34:20;100275.19;;;20.38;100.00
7441;BME280;29616;51.950;8.572;2023-07-09T00:36:52;100284.97;;;20.34;100.00
7441;BME280;29616;51.950;8.572;2023-07-09T00:39:23;100287.97;;;20.26;100.00
7441;BME280;29616;51.950;8.572;2023-07-09T00:41:52;100288.13;;;20.18;100.00
7441;BME280;29616;51.950;8.572;2023-07-09T00:44:28;100293.66;;;20.05;100.00
7441;BME280;29616;51.950;8.572;2023-07-09T00:47:21;100285.31;;;19.99;100.00
7441;BME280;29616;51.950;8.572;2023-07-09T00:50:04;100291.03;;;19.84;100.00
7441;BME280;29616;51.950;8.572;2023-07-09T00:52:42;100278.84;;;19.72;100.00
7441;BME280;29616;51.950;8.572;2023-07-09T00:55:17;100297.97;;;19.67;100.00
7441;BME280;29616;51.950;8.572;2023-07-09T00:57:48;100300.06;;;19.52;100.00
7441;BME280;29616;51.950;8.572;2023-07-09T01:00:27;100303.81;;;19.38;100.00
7441;BME280;29616;51.950;8.572;2023-07-09T01:02:58;100298.16;;;19.24;100.00
7441;BME280;29616;51.950;8.572;2023-07-09T01:05:27;100314.44;;;19.34;100.00
7441;BME280;29616;51.950;8.572;2023-07-09T01:07:55;100314.38;;;19.27;100.00
7441;BME280;29616;51.950;8.572;2023-07-09T01:10:26;100309.00;;;19.19;100.00
7441;BME280;29616;51.950;8.572;2023-07-09T01:12:54;100308.91;;;19.06;100.00
7441;BME280;29616;51.950;8.572;2023-07-09T01:15:24;100299.75;;;19.06;100.00
7441;BME280;29616;51.950;8.572;2023-07-09T01:17:52;100307.91;;;19.14;100.00
7441;BME280;29616;51.950;8.572;2023-07-09T01:20:21;100289.59;;;19.19;100.00
7441;BME280;29616;51.950;8.572;2023-07-09T01:22:52;100295.59;;;19.23;100.00
7441;BME280;29616;51.950;8.572;2023-07-09T01:25:26;100273.38;;;19.16;100.00
7441;BME280;29616;51.950;8.572;2023-07-09T01:27:55;100286.31;;;19.37;100.00
7441;BME280;29616;51.950;8.572;2023-07-09T01:30:29;100274.63;;;19.42;100.00
7441;BME280;29616;51.950;8.572;2023-07-09T01:33:00;100267.78;;;19.38;100.00
7441;BME280;29616;51.950;8.572;2023-07-09T01:35:32;100286.38;;;19.44;100.00
7441;BME280;29616;51.950;8.572;2023-07-09T01:38:02;100274.00;;;19.46;100.00
7441;BME280;29616;51.950;8.572;2023-07-09T01:40:35;100273.59;;;19.43;100.00
7441;BME280;29616;51.950;8.572;2023-07-09T01:43:06;100260.53;;;19.36;100.00
7441;BME280;29616;51.950;8.572;2023-07-09T01:45:36;100272.28;;;19.39;100.00
7441;BME280;29616;51.950;8.572;2023-07-09T01:48:05;100276.84;;;19.53;100.00
7441;BME280;29616;51.950;8.572;2023-07-09T01:50:34;100274.47;;;19.50;100.00
7441;BME280;29616;51.950;8.572;2023-07-09T01:53:07;100291.91;;;19.44;100.00
7441;BME280;29616;51.950;8.572;2023-07-09T01:55:35;100278.97;;;19.23;100.00
7441;BME280;29616;51.950;8.572;2023-07-09T01:58:04;100279.84;;;19.23;100.00
7441;BME280;29616;51.950;8.572;2023-07-09T02:00:34;100271.13;;;19.26;100.00
7441;BME280;29616;51.950;8.572;2023-07-09T02:03:03;100274.53;;;19.28;100.00
7441;BME280;29616;51.950;8.572;2023-07-09T02:05:32;100266.34;;;19.14;100.00
7441;BME280;29616;51.950;8.572;2023-07-09T02:08:02;100274.47;;;19.15;100.00
7441;BME280;29616;51.950;8.572;2023-07-09T02:10:31;100269.50;;;19.11;100.00
7441;BME280;29616;51.950;8.572;2023-07-09T02:13:00;100264.19;;;19.09;100.00
7441;BME280;29616;51.950;8.572;2023-07-09T02:15:28;100262.03;;;19.05;100.00
7441;BME280;29616;51.950;8.572;2023-07-09T02:17:57;100261.81;;;19.06;100.00
7441;BME280;29616;51.950;8.572;2023-07-09T02:20:29;100261.03;;;19.12;100.00
7441;BME280;29616;51.950;8.572;2023-07-09T02:22:57;100272.41;;;19.24;100.00
7441;BME280;29616;51.950;8.572;2023-07-09T02:25:25;100271.31;;;19.25;100.00
7441;BME280;29616;51.950;8.572;2023-07-09T02:27:54;100255.56;;;19.25;100.00
7441;BME280;29616;51.950;8.572;2023-07-09T02:30:23;100268.34;;;19.26;100.00
7441;BME280;29616;51.950;8.572;2023-07-09T02:32:51;100273.38;;;19.16;100.00
7441;BME280;29616;51.950;8.572;2023-07-09T02:35:21;100276.53;;;19.07;100.00
7441;BME280;29616;51.950;8.572;2023-07-09T02:37:50;100279.22;;;18.94;100.00
7441;BME280;29616;51.950;8.572;2023-07-09T02:40:18;100274.38;;;19.02;100.00
7441;BME280;29616;51.950;8.572;2023-07-09T02:42:46;100281.63;;;19.03;100.00
7441;BME280;29616;51.950;8.572;2023-07-09T02:45:18;100270.84;;;18.87;100.00
7441;BME280;29616;51.950;8.572;2023-07-09T02:47:47;100287.94;;;18.91;100.00
7441;BME280;29616;51.950;8.572;2023-07-09T02:50:16;100291.91;;;18.82;100.00
7441;BME280;29616;51.950;8.572;2023-07-09T02:52:44;100289.88;;;18.69;100.00
7441;BME280;29616;51.950;8.572;2023-07-09T02:55:12;100291.38;;;18.65;100.00
7441;BME280;29616;51.950;8.572;2023-07-09T02:57:41;100299.28;;;18.68;100.00
7441;BME280;29616;51.950;8.572;2023-07-09T03:00:11;100299.41;;;18.60;100.00
7441;BME280;29616;51.950;8.572;2023-07-09T03:02:41;100302.38;;;18.58;100.00
7441;BME280;29616;51.950;8.572;2023-07-09T03:05:09;100303.94;;;18.46;100.00
7441;BME280;29616;51.950;8.572;2023-07-09T03:07:38;100299.97;;;18.34;100.00
7441;BME280;29616;51.950;8.572;2023-07-09T03:10:07;100295.81;;;18.45;100.00
7441;BME280;29616;51.950;8.572;2023-07-09T03:12:36;100302.22;;;18.45;100.00
7441;BME280;29616;51.950;8.572;2023-07-09T03:15:05;100291.28;;;18.37;100.00
7441;BME280;29616;51.950;8.572;2023-07-09T03:17:34;100298.78;;;18.43;100.00
7441;BME280;29616;51.950;8.572;2023-07-09T03:20:04;100307.28;;;18.63;100.00
7441;BME280;29616;51.950;8.572;2023-07-09T03:22:35;100314.03;;;18.54;100.00
7441;BME280;29616;51.950;8.572;2023-07-09T03:25:04;100304.88;;;18.53;100.00
7441;BME280;29616;51.950;8.572;2023-07-09T03:27:33;100309.13;;;18.49;100.00
7441;BME280;29616;51.950;8.572;2023-07-09T03:30:01;100316.84;;;18.60;100.00
7441;BME280;29616;51.950;8.572;2023-07-09T03:32:30;100314.81;;;18.69;100.00
7441;BME280;29616;51.950;8.572;2023-07-09T03:34:58;100322.25;;;18.68;100.00
7441;BME280;29616;51.950;8.572;2023-07-09T03:37:27;100315.59;;;18.63;100.00
7441;BME280;29616;51.950;8.572;2023-07-09T03:39:56;100322.69;;;18.65;100.00
7441;BME280;29616;51.950;8.572;2023-07-09T03:42:24;100317.81;;;18.74;100.00
7441;BME280;29616;51.950;8.572;2023-07-09T03:44:53;100312.38;;;18.87;100.00
7441;BME280;29616;51.950;8.572;2023-07-09T03:47:21;100322.06;;;18.98;100.00
7441;BME280;29616;51.950;8.572;2023-07-09T03:49:50;100310.59;;;19.01;100.00
7441;BME280;29616;51.950;8.572;2023-07-09T03:52:18;100314.44;;;19.06;100.00
7441;BME280;29616;51.950;8.572;2023-07-09T03:54:47;100310.88;;;19.12;100.00
7441;BME280;29616;51.950;8.572;2023-07-09T03:57:16;100309.63;;;19.15;100.00
7441;BME280;29616;51.950;8.572;2023-07-09T03:59:44;100313.94;;;19.24;100.00
7441;BME280;29616;51.950;8.572;2023-07-09T04:02:12;100307.97;;;19.20;100.00
7441;BME280;29616;51.950;8.572;2023-07-09T04:04:41;100295.78;;;19.21;100.00
7441;BME280;29616;51.950;8.572;2023-07-09T04:07:09;100308.50;;;19.37;100.00
7441;BME280;29616;51.950;8.572;2023-07-09T04:09:37;100309.63;;;19.49;100.00
7441;BME280;29616;51.950;8.572;2023-07-09T04:12:08;100308.41;;;19.58;100.00
7441;BME280;29616;51.950;8.572;2023-07-09T04:14:37;100305.03;;;19.69;100.00
7441;BME280;29616;51.950;8.572;2023-07-09T04:17:06;100309.38;;;19.85;100.00
7441;BME280;29616;51.950;8.572;2023-07-09T04:19:35;100307.50;;;19.99;100.00
7441;BME280;29616;51.950;8.572;2023-07-09T04:22:04;100294.31;;;20.20;100.00
7441;BME280;29616;51.950;8.572;2023-07-09T04:24:32;100301.22;;;20.37;100.00
7441;BME280;29616;51.950;8.572;2023-07-09T04:27:00;100302.94;;;20.45;100.00
7441;BME280;29616;51.950;8.572;2023-07-09T04:29:32;100306.38;;;20.53;100.00
7441;BME280;29616;51.950;8.572;2023-07-09T04:32:01;100305.94;;;20.63;100.00
7441;BME280;29616;51.950;8.572;2023-07-09T04:34:29;100300.81;;;20.73;100.00
7441;BME280;29616;51.950;8.572;2023-07-09T04:36:58;100305.72;;;20.91;100.00
7441;BME280;29616;51.950;8.572;2023-07-09T04:39:27;100307.19;;;21.00;100.00
7441;BME280;29616;51.950;8.572;2023-07-09T04:41:56;100302.94;;;21.04;100.00
7441;BME280;29616;51.950;8.572;2023-07-09T04:44:24;100298.03;;;21.12;100.00
7441;BME280;29616;51.950;8.572;2023-07-09T04:46:54;100308.47;;;21.30;100.00
7441;BME280;29616;51.950;8.572;2023-07-09T04:49:22;100302.88;;;21.50;100.00
7441;BME280;29616;51.950;8.572;2023-07-09T04:51:51;100312.84;;;21.64;100.00
7441;BME280;29616;51.950;8.572;2023-07-09T04:54:19;100308.56;;;21.68;100.00
7441;BME280;29616;51.950;8.572;2023-07-09T04:56:49;100313.00;;;21.89;100.00
7441;BME280;29616;51.950;8.572;2023-07-09T04:59:18;100314.59;;;22.09;100.00
7441;BME280;29616;51.950;8.572;2023-07-09T05:01:47;100309.63;;;22.24;100.00
7441;BME280;29616;51.950;8.572;2023-07-09T05:04:16;100302.41;;;22.42;100.00
7441;BME280;29616;51.950;8.572;2023-07-09T05:06:48;100307.97;;;22.48;100.00
7441;BME280;29616;51.950;8.572;2023-07-09T05:09:16;100300.56;;;22.67;100.00
7441;BME280;29616;51.950;8.572;2023-07-09T05:11:45;100308.28;;;22.89;100.00
7441;BME280;29616;51.950;8.572;2023-07-09T05:14:14;100303.91;;;23.00;100.00
7441;BME280;29616;51.950;8.572;2023-07-09T05:16:43;100307.06;;;23.28;100.00
7441;BME280;29616;51.950;8.572;2023-07-09T05:19:11;100299.59;;;23.47;100.00
7441;BME280;29616;51.950;8.572;2023-07-09T05:21:41;100309.84;;;23.71;100.00
7441;BME280;29616;51.950;8.572;2023-07-09T05:24:09;100312.97;;;23.93;100.00
7441;BME280;29616;51.950;8.572;2023-07-09T05:26:38;100309.78;;;24.07;100.00
7441;BME280;29616;51.950;8.572;2023-07-09T05:29:06;100316.16;;;24.15;100.00
7441;BME280;29616;51.950;8.572;2023-07-09T05:31:35;100328.84;;;24.29;100.00
7441;BME280;29616;51.950;8.572;2023-07-09T05:34:04;100306.50;;;24.58;100.00
7441;BME280;29616;51.950;8.572;2023-07-09T05:36:32;100315.56;;;24.84;100.00
7441;BME280;29616;51.950;8.572;2023-07-09T05:39:02;100323.25;;;25.23;100.00
7441;BME280;29616;51.950;8.572;2023-07-09T05:41:30;100325.81;;;25.48;100.00
7441;BME280;29616;51.950;8.572;2023-07-09T05:43:58;100327.38;;;25.78;100.00
7441;BME280;29616;51.950;8.572;2023-07-09T05:46:27;100315.00;;;26.14;100.00
7441;BME280;29616;51.950;8.572;2023-07-09T05:48:56;100321.41;;;26.55;100.00
7441;BME280;29616;51.950;8.572;2023-07-09T05:51:25;100321.81;;;27.08;100.00
7441;BME280;29616;51.950;8.572;2023-07-09T05:53:53;100326.16;;;27.32;100.00
7441;BME280;29616;51.950;8.572;2023-07-09T05:56:23;100321.00;;;27.62;100.00
7441;BME280;29616;51.950;8.572;2023-07-09T05:58:51;100334.69;;;27.97;100.00
7441;BME280;29616;51.950;8.572;2023-07-09T06:01:20;100335.63;;;28.24;100.00
7441;BME280;29616;51.950;8.572;2023-07-09T06:03:48;100336.75;;;28.02;100.00
7441;BME280;29616;51.950;8.572;2023-07-09T06:06:17;100340.94;;;28.21;100.00
7441;BME280;29616;51.950;8.572;2023-07-09T06:08:46;100332.47;;;28.43;100.00
7441;BME280;29616;51.950;8.572;2023-07-09T06:11:14;100332.88;;;28.78;100.00
7441;BME280;29616;51.950;8.572;2023-07-09T06:13:46;100338.44;;;29.00;100.00
7441;BME280;29616;51.950;8.572;2023-07-09T06:16:16;100324.94;;;29.02;100.00
7441;BME280;29616;51.950;8.572;2023-07-09T06:18:44;100342.34;;;28.99;100.00
7441;BME280;29616;51.950;8.572;2023-07-09T06:21:13;100340.66;;;28.98;100.00
7441;BME280;29616;51.950;8.572;2023-07-09T06:23:41;100332.06;;;28.82;100.00
7441;BME280;29616;51.950;8.572;2023-07-09T06:26:09;100344.84;;;29.22;100.00
7441;BME280;29616;51.950;8.572;2023-07-09T06:28:38;100337.47;;;29.53;100.00
7441;BME280;29616;51.950;8.572;2023-07-09T06:31:07;100344.06;;;29.73;100.00
7441;BME280;29616;51.950;8.572;2023-07-09T06:33:35;100351.50;;;29.84;97.39
7441;BME280;29616;51.950;8.572;2023-07-09T06:36:05;100343.06;;;29.89;100.00
7441;BME280;29616;51.950;8.572;2023-07-09T06:38:33;100363.63;;;30.42;93.58
7441;BME280;29616;51.950;8.572;2023-07-09T06:41:02;100356.75;;;30.95;95.26
7441;BME280;29616;51.950;8.572;2023-07-09T06:43:30;100362.13;;;31.22;94.50
7441;BME280;29616;51.950;8.572;2023-07-09T06:46:00;100361.25;;;31.66;84.28
7441;BME280;29616;51.950;8.572;2023-07-09T06:48:31;100365.50;;;31.54;86.96
7441;BME280;29616;51.950;8.572;2023-07-09T06:51:00;100355.31;;;31.63;84.79
7441;BME280;29616;51.950;8.572;2023-07-09T06:53:29;100355.28;;;31.78;81.80
7441;BME280;29616;51.950;8.572;2023-07-09T06:55:58;100365.94;;;32.16;81.99
7441;BME280;29616;51.950;8.572;2023-07-09T06:58:29;100352.50;;;31.63;86.05
7441;BME280;29616;51.950;8.572;2023-07-09T07:01:01;100361.94;;;32.32;82.85
7441;BME280;29616;51.950;8.572;2023-07-09T07:03:32;100359.78;;;32.68;78.52
7441;BME280;29616;51.950;8.572;2023-07-09T07:06:01;100369.75;;;32.51;76.44
7441;BME280;29616;51.950;8.572;2023-07-09T07:08:30;100370.44;;;32.27;77.11
7441;BME280;29616;51.950;8.572;2023-07-09T07:11:01;100359.13;;;33.25;77.80
7441;BME280;29616;51.950;8.572;2023-07-09T07:13:32;100361.94;;;32.86;72.69
7441;BME280;29616;51.950;8.572;2023-07-09T07:16:02;100365.81;;;32.95;75.37
7441;BME280;29616;51.950;8.572;2023-07-09T07:18:33;100352.75;;;33.38;70.41
7441;BME280;29616;51.950;8.572;2023-07-09T07:21:01;100364.13;;;33.67;69.35
7441;BME280;29616;51.950;8.572;2023-07-09T07:23:30;100350.78;;;33.39;71.83
7441;BME280;29616;51.950;8.572;2023-07-09T07:25:58;100361.56;;;33.37;65.03
7441;BME280;29616;51.950;8.572;2023-07-09T07:28:27;100357.84;;;33.41;61.87
7441;BME280;29616;51.950;8.572;2023-07-09T07:31:00;100365.81;;;34.44;63.41
7441;BME280;29616;51.950;8.572;2023-07-09T07:33:28;100368.47;;;34.59;62.39
7441;BME280;29616;51.950;8.572;2023-07-09T07:35:58;100369.25;;;34.41;62.05
7441;BME280;29616;51.950;8.572;2023-07-09T07:38:29;100367.63;;;34.35;63.65
7441;BME280;29616;51.950;8.572;2023-07-09T07:40:57;100378.03;;;35.06;63.78
7441;BME280;29616;51.950;8.572;2023-07-09T07:43:25;100374.28;;;34.68;65.80
7441;BME280;29616;51.950;8.572;2023-07-09T07:45:54;100377.03;;;34.07;61.68
7441;BME280;29616;51.950;8.572;2023-07-09T07:48:22;100377.91;;;34.07;63.00
7441;BME280;29616;51.950;8.572;2023-07-09T07:50:50;100379.31;;;34.05;65.14
7441;BME280;29616;51.950;8.572;2023-07-09T07:53:20;100355.97;;;34.60;63.94
7441;BME280;29616;51.950;8.572;2023-07-09T07:55:48;100367.94;;;34.95;67.35
7441;BME280;29616;51.950;8.572;2023-07-09T07:58:16;100374.16;;;34.59;63.70
7441;BME280;29616;51.950;8.572;2023-07-09T08:00:45;100362.94;;;34.68;62.57
7441;BME280;29616;51.950;8.572;2023-07-09T08:03:13;100352.38;;;34.73;63.04
7441;BME280;29616;51.950;8.572;2023-07-09T08:05:41;100352.97;;;34.89;64.88
7441;BME280;29616;51.950;8.572;2023-07-09T08:08:09;100367.69;;;35.47;64.88
7441;BME280;29616;51.950;8.572;2023-07-09T08:10:39;100354.38;;;35.61;65.23
7441;BME280;29616;51.950;8.572;2023-07-09T08:13:08;100361.19;;;36.47;61.39
7441;BME280;29616;51.950;8.572;2023-07-09T08:15:36;100360.13;;;36.70;59.75
7441;BME280;29616;51.950;8.572;2023-07-09T08:18:04;100355.41;;;36.52;60.32
7441;BME280;29616;51.950;8.572;2023-07-09T08:20:33;100351.75;;;36.38;57.87
7441;BME280;29616;51.950;8.572;2023-07-09T08:23:02;100357.72;;;36.23;58.74
7441;BME280;29616;51.950;8.572;2023-07-09T08:25:30;100352.47;;;36.03;59.34
7441;BME280;29616;51.950;8.572;2023-07-09T08:27:59;100356.00;;;35.95;59.56
7441;BME280;29616;51.950;8.572;2023-07-09T08:30:28;100349.91;;;35.87;59.79
7441;BME280;29616;51.950;8.572;2023-07-09T08:32:56;100357.25;;;35.88;59.41
7441;BME280;29616;51.950;8.572;2023-07-09T08:35:25;100346.06;;;36.11;59.46
7441;BME280;29616;51.950;8.572;2023-07-09T08:38:02;100357.22;;;36.34;59.12
7441;BME280;29616;51.950;8.572;2023-07-09T08:40:33;100350.22;;;36.00;54.89
7441;BME280;29616;51.950;8.572;2023-07-09T08:43:16;100360.47;;;36.28;58.75
7441;BME280;29616;51.950;8.572;2023-07-09T08:45:55;100349.09;;;36.55;56.94
7441;BME280;29616;51.950;8.572;2023-07-09T08:48:31;100362.63;;;36.85;55.93
7441;BME280;29616;51.950;8.572;2023-07-09T08:51:06;100351.41;;;36.26;54.02
7441;BME280;29616;51.950;8.572;2023-07-09T08:53:38;100332.88;;;36.28;56.57
7441;BME280;29616;51.950;8.572;2023-07-09T08:56:10;100340.25;;;36.29;56.91
7441;BME280;29616;51.950;8.572;2023-07-09T08:58:40;100351.81;;;35.92;57.90
7441;BME280;29616;51.950;8.572;2023-07-09T09:01:18;100350.44;;;36.44;56.58
7441;BME280;29616;51.950;8.572;2023-07-09T09:03:49;100361.13;;;36.25;55.58
7441;BME280;29616;51.950;8.572;2023-07-09T09:06:21;100348.78;;;36.02;57.91
7441;BME280;29616;51.950;8.572;2023-07-09T09:09:05;100363.78;;;36.84;55.43
7441;BME280;29616;51.950;8.572;2023-07-09T09:11:44;100365.44;;;37.13;56.03
7441;BME280;29616;51.950;8.572;2023-07-09T09:14:28;100358.94;;;36.98;55.28
7441;BME280;29616;51.950;8.572;2023-07-09T09:16:58;100351.88;;;37.18;55.01
7441;BME280;29616;51.950;8.572;2023-07-09T09:19:31;100357.97;;;36.89;55.41
7441;BME280;29616;51.950;8.572;2023-07-09T09:22:08;100356.06;;;36.22;56.17
7441;BME280;29616;51.950;8.572;2023-07-09T09:24:43;100345.56;;;35.76;59.28
7441;BME280;29616;51.950;8.572;2023-07-09T09:27:18;100360.06;;;36.34;57.03
7441;BME280;29616;51.950;8.572;2023-07-09T09:29:48;100352.03;;;36.64;59.50
7441;BME280;29616;51.950;8.572;2023-07-09T09:32:25;100351.97;;;37.04;59.14
7441;BME280;29616;51.950;8.572;2023-07-09T09:34:55;100342.66;;;36.63;61.95
7441;BME280;29616;51.950;8.572;2023-07-09T09:37:27;100353.50;;;37.11;59.05
7441;BME280;29616;51.950;8.572;2023-07-09T09:39:58;100352.88;;;37.36;59.60
7441;BME280;29616;51.950;8.572;2023-07-09T09:42:43;100346.25;;;37.04;59.32
7441;BME280;29616;51.950;8.572;2023-07-09T09:45:18;100345.44;;;36.90;59.52
7441;BME280;29616;51.950;8.572;2023-07-09T09:47:48;100357.66;;;36.91;61.01
7441;BME280;29616;51.950;8.572;2023-07-09T09:50:18;100348.00;;;37.58;61.08
7441;BME280;29616;51.950;8.572;2023-07-09T09:52:48;100358.97;;;37.87;58.85
7441;BME280;29616;51.950;8.572;2023-07-09T09:55:19;100355.91;;;37.61;59.01
7441;BME280;29616;51.950;8.572;2023-07-09T09:57:49;100346.47;;;38.05;58.75
7441;BME280;29616;51.950;8.572;2023-07-09T10:00:23;100341.94;;;37.82;58.24
7441;BME280;29616;51.950;8.572;2023-07-09T10:02:58;100344.59;;;37.48;56.40
7441;BME280;29616;51.950;8.572;2023-07-09T10:05:32;100350.66;;;37.33;55.71
7441;BME280;29616;51.950;8.572;2023-07-09T10:08:07;100359.72;;;37.13;56.73
7441;BME280;29616;51.950;8.572;2023-07-09T10:10:38;100347.88;;;37.19;56.08
7441;BME280;29616;51.950;8.572;2023-07-09T10:13:18;100354.41;;;37.20;57.14
7441;BME280;29616;51.950;8.572;2023-07-09T10:22:53;100349.97;;;37.80;62.54
7441;BME280;29616;51.950;8.572;2023-07-09T10:25:34;100356.91;;;38.18;55.65
7441;BME280;29616;51.950;8.572;2023-07-09T10:31:17;100346.25;;;38.41;58.74
7441;BME280;29616;51.950;8.572;2023-07-09T10:34:00;100350.84;;;38.68;57.41
7441;BME280;29616;51.950;8.572;2023-07-09T10:36:56;100354.59;;;38.29;56.65
7441;BME280;29616;51.950;8.572;2023-07-09T10:39:34;100345.78;;;38.48;57.88
7441;BME280;29616;51.950;8.572;2023-07-09T10:42:04;100349.41;;;38.96;56.95
7441;BME280;29616;51.950;8.572;2023-07-09T10:44:38;100360.81;;;38.79;57.17
7441;BME280;29616;51.950;8.572;2023-07-09T10:47:16;100350.38;;;38.74;58.16
7441;BME280;29616;51.950;8.572;2023-07-09T10:49:50;100356.97;;;38.92;59.28
7441;BME280;29616;51.950;8.572;2023-07-09T10:52:26;100348.06;;;38.94;57.57
7441;BME280;29616;51.950;8.572;2023-07-09T10:55:03;100346.91;;;39.29;57.16
7441;BME280;29616;51.950;8.572;2023-07-09T10:57:42;100342.53;;;39.31;57.44
7441;BME280;29616;51.950;8.572;2023-07-09T11:00:18;100353.09;;;39.05;54.59
7441;BME280;29616;51.950;8.572;2023-07-09T11:02:54;100347.56;;;39.00;59.57
7441;BME280;29616;51.950;8.572;2023-07-09T11:05:26;100348.34;;;39.61;55.36
7441;BME280;29616;51.950;8.572;2023-07-09T11:08:02;100345.38;;;38.97;52.59
7441;BME280;29616;51.950;8.572;2023-07-09T11:10:36;100344.22;;;39.07;55.21
7441;BME280;29616;51.950;8.572;2023-07-09T11:13:11;100340.16;;;38.99;56.55
7441;BME280;29616;51.950;8.572;2023-07-09T11:15:44;100327.25;;;39.02;53.62
7441;BME280;29616;51.950;8.572;2023-07-09T11:18:22;100323.72;;;38.96;53.93
7441;BME280;29616;51.950;8.572;2023-07-09T11:21:00;100341.84;;;38.83;54.50
7441;BME280;29616;51.950;8.572;2023-07-09T11:23:43;100326.38;;;39.18;51.05
7441;BME280;29616;51.950;8.572;2023-07-09T11:26:22;100324.88;;;39.21;50.05
7441;BME280;29616;51.950;8.572;2023-07-09T11:28:53;100318.31;;;38.86;50.81
7441;BME280;29616;51.950;8.572;2023-07-09T11:31:31;100321.41;;;38.42;50.03
7441;BME280;29616;51.950;8.572;2023-07-09T11:34:07;100298.34;;;38.77;49.22
7441;BME280;29616;51.950;8.572;2023-07-09T11:36:48;100328.72;;;39.51;47.09
7441;BME280;29616;51.950;8.572;2023-07-09T11:39:22;100327.75;;;39.29;48.33
7441;BME280;29616;51.950;8.572;2023-07-09T11:41:52;100318.94;;;39.69;48.91
7441;BME280;29616;51.950;8.572;2023-07-09T11:44:25;100324.50;;;39.65;48.48
7441;BME280;29616;51.950;8.572;2023-07-09T11:47:12;100318.63;;;39.45;47.58
7441;BME280;29616;51.950;8.572;2023-07-09T11:49:51;100322.41;;;39.91;46.64
7441;BME280;29616;51.950;8.572;2023-07-09T11:52:26;100321.94;;;39.81;46.96
7441;BME280;29616;51.950;8.572;2023-07-09T11:54:56;100332.28;;;39.30;47.78
7441;BME280;29616;51.950;8.572;2023-07-09T11:57:28;100333.81;;;39.28;48.23
7441;BME280;29616;51.950;8.572;2023-07-09T11:59:59;100329.31;;;39.82;46.44
7441;BME280;29616;51.950;8.572;2023-07-09T12:02:38;100335.25;;;39.60;45.93
7441;BME280;29616;51.950;8.572;2023-07-09T12:05:07;100326.94;;;40.30;44.14
7441;BME280;29616;51.950;8.572;2023-07-09T12:07:36;100302.72;;;40.28;42.38
7441;BME280;29616;51.950;8.572;2023-07-09T12:10:19;100311.41;;;40.40;40.03
7441;BME280;29616;51.950;8.572;2023-07-09T12:12:55;100307.72;;;39.93;41.63
7441;BME280;29616;51.950;8.572;2023-07-09T12:15:26;100313.91;;;40.41;41.19
7441;BME280;29616;51.950;8.572;2023-07-09T12:17:58;100313.41;;;40.48;42.31
7441;BME280;29616;51.950;8.572;2023-07-09T12:20:30;100292.53;;;40.47;41.67
7441;BME280;29616;51.950;8.572;2023-07-09T12:22:59;100292.31;;;40.73;41.24
7441;BME280;29616;51.950;8.572;2023-07-09T12:25:30;100287.31;;;40.12;40.46
7441;BME280;29616;51.950;8.572;2023-07-09T12:28:00;100285.50;;;40.07;41.42
7441;BME280;29616;51.950;8.572;2023-07-09T12:30:33;100273.19;;;40.07;43.42
7441;BME280;29616;51.950;8.572;2023-07-09T12:33:07;100275.63;;;40.46;42.41
7441;BME280;29616;51.950;8.572;2023-07-09T12:35:36;100271.50;;;40.35;43.54
7441;BME280;29616;51.950;8.572;2023-07-09T12:38:15;100277.09;;;40.31;42.16
7441;BME280;29616;51.950;8.572;2023-07-09T12:40:44;100256.63;;;40.21;40.96
7441;BME280;29616;51.950;8.572;2023-07-09T12:43:19;100271.63;;;40.18;43.77
7441;BME280;29616;51.950;8.572;2023-07-09T12:45:51;100262.72;;;40.90;41.66
7441;BME280;29616;51.950;8.572;2023-07-09T12:48:23;100248.16;;;40.24;41.49
7441;BME280;29616;51.950;8.572;2023-07-09T12:50:55;100244.97;;;40.55;40.91
7441;BME280;29616;51.950;8.572;2023-07-09T12:53:28;100243.00;;;40.68;41.67
7441;BME280;29616;51.950;8.572;2023-07-09T12:55:59;100230.50;;;40.22;41.44
7441;BME280;29616;51.950;8.572;2023-07-09T12:58:31;100229.13;;;40.28;41.86
7441;BME280;29616;51.950;8.572;2023-07-09T13:01:05;100224.91;;;40.55;41.15
7441;BME280;29616;51.950;8.572;2023-07-09T13:03:35;100230.88;;;40.41;43.01
7441;BME280;29616;51.950;8.572;2023-07-09T13:06:06;100221.28;;;40.67;41.40
7441;BME280;29616;51.950;8.572;2023-07-09T13:08:57;100221.00;;;41.01;40.88
7441;BME280;29616;51.950;8.572;2023-07-09T13:11:33;100200.81;;;40.77;41.13
7441;BME280;29616;51.950;8.572;2023-07-09T13:14:07;100228.22;;;40.36;42.42
7441;BME280;29616;51.950;8.572;2023-07-09T13:16:41;100221.44;;;40.20;43.52
7441;BME280;29616;51.950;8.572;2023-07-09T13:19:12;100212.28;;;40.89;42.53
7441;BME280;29616;51.950;8.572;2023-07-09T13:21:41;100218.00;;;40.77;42.19
7441;BME280;29616;51.950;8.572;2023-07-09T13:24:17;100224.19;;;40.79;40.30
7441;BME280;29616;51.950;8.572;2023-07-09T13:26:49;100210.84;;;40.41;41.11